Tiempo atmosférico en la estación meteorológica de Monforte De Lemos, Lugo (291 m.)



Fecha
DESCASC
Temp. máxima en grados centígrados (hora)
DESCASC
Temp. mínima en grados centígrados (hora)
DESCASC
Temp. media en grados centígrados
DESCASC
Racha de viento máxima en m/sg (hora)
DESCASC
Velocidad máxima media en intervalos de 10 minutos(hora)
DESCASC
Precipitaciones diarias en mm
DESCASC
Precipitaciones de 00:00 a 06:00 en mm
DESCASC
Precipitaciones de 06:00 a 12:00 en mm
DESCASC
Precipitaciones de 12:00 a 18:00 en mm
DESCASC
Precipitaciones de 18:00 a 24:00 en mm
DESCASC
22-01-2020 16.2 (14:50) 0.5 (07:50) 8.4 8.61 (00:10) 4.17 (00:20) 0 0 0 0 0
21-01-2020 12.8 (14:10) -3.5 (09:10) 4.7 11.67 (22:40) 5.83 (16:50) 0 0 0 0 0
20-01-2020 11.4 (15:30) 3.4 (07:10) 7.4 13.06 (14:40) 6.94 (14:40) 0 0 0 0 0
19-01-2020 12.6 (14:20) 5 (00:00) 8.8 12.22 (15:10) 6.11 (14:50) 0.2 0.2 0 0 0
18-01-2020 15.2 (14:00) 5.4 (00:00) 10.3 10.56 (15:30) 4.72 (13:00) 4.4 0.2 0 0.6 3.6
17-01-2020 11.7 (13:00) 4.6 (00:00) 8.1 5.28 (13:10) 2.78 (13:10) 1.8 0.8 1 0 0
16-01-2020 15.7 (03:40) 8.5 (00:00) 12.1 16.94 (12:10) 6.11 (06:20) 10.2 0 0 0 10.2
15-01-2020 16.9 (15:40) 8.2 (00:00) 12.5 10.56 (00:10) 5.56 (00:10) 16 6.2 9.8 0 0
14-01-2020 13.8 (14:40) 11 (00:00) 12.4 12.22 (23:50) 5.56 (23:10) 0 0 0 0 0
13-01-2020 14.3 (15:20) -1.3 (-00:0) 6.5 8.89 (15:50) 4.17 (15:50) 0 0 0 0 0
12-01-2020 7.7 (16:50) -1.7 (-00:0) 3 1.67 (15:40) 0.56 (15:50) 0 0 0 0 0
11-01-2020 9.9 (16:50) -1.4 (-00:0) 4.2 1.39 (16:00) 0.83 (16:00) 0 0 0 0 0
10-01-2020 13.2 (16:10) 0.1 (00:00) 6.6 5.28 (17:20) 2.5 (15:30) 0 0 0 0 0
09-01-2020 15 (13:50) 2.1 (00:00) 8.5 9.17 (14:10) 4.17 (14:10) 0.2 0 0 0.2 0
08-01-2020 10.7 (14:40) -0.8 (-00:0) 4.9 1.94 (12:50) 0.83 (12:50) 0 0 0 0 0
07-01-2020 7.2 (16:30) -0.8 (-00:0) 3.2 2.22 (15:30) 0.83 (15:30) 0 0 0 0 0
06-01-2020 2.5 (16:00) -0.7 (-00:0) 0.9 1.67 (15:30) 0.56 (12:50) 0 0 0 0 0
05-01-2020 12.9 (16:40) -0.4 (00:00) 6.2 2.5 (01:10) 1.11 (01:30) 0 0 0 0 0
04-01-2020 7.5 (00:00) 4.5 (00:00) 6 2.78 (22:20) 1.39 (13:10) 0 0 0 0 0
03-01-2020 10.3 (16:20) 1.8 (00:00) 6.1 1.39 (16:00) 0.56 (22:50) 1.6 0 1.2 0.4 0
02-01-2020 3.3 (16:40) -1.6 (-00:0) 0.8 1.39 (20:40) 0.83 (20:50) 0.2 0 0.2 0 0
01-01-2020 4.8 (16:30) -0.5 (-00:0) 2.2 2.22 (10:00) 1.11 (10:10) 0 0 0 0 0
31-12-2019 5.5 (17:00) -1.6 (-00:0) 1.9 1.67 (00:40) 0.56 (00:40) 0 0 0 0 0
30-12-2019 -- (--) -- (--) -- -- (--) -- (--) -- 0 0 0 --
29-12-2019 13.1 (16:40) -2.7 (-00:0) 5.2 1.39 (15:00) 0.83 (15:10) 0 0 0 0 0
28-12-2019 9.4 (16:40) -1.8 (-00:0) 3.8 1.39 (16:00) 0.56 (16:10) 0.2 0 0 0.2 0
27-12-2019 5.6 (16:50) 0.2 (00:00) 2.9 1.94 (15:50) 1.11 (04:00) 0 0 0 0 0

Gráficas

Temp. máximas Temp. mínimas Temp. medias Precipitaciones Rachas de viento máximas Velocidades máximas media en intervalos de 10 minutos

Datos horarios

Fecha y hora oficial Temperatura (ºC) Velocidad del viento (km/h) Dirección del viento Racha (km/h) Dirección de racha Precipitación (mm) Presión (hPa) Tendencia (hPa) Humedad (%)
2020-01-25 23:00:00 7.2 0 Calma 3 Nordeste 0 -- -- 83
2020-01-25 22:00:00 7.8 0 Calma 2 Noroeste 0 -- -- 82
2020-01-25 21:00:00 8.5 0 Calma 0 Calma 0 -- -- 79
2020-01-25 20:00:00 9.7 0 Calma 3 Sur 0 -- -- 75
2020-01-25 19:00:00 11 0 Calma 12 Sudoeste 0 -- -- 67
2020-01-25 18:00:00 12.6 6 Sudoeste 14 Sudoeste 0 -- -- 54
2020-01-25 17:00:00 14.8 0 Calma -- -- 0 -- -- 53
2020-01-25 16:00:00 14.1 0 Calma 0 Calma 0 -- -- 60
2020-01-25 15:00:00 12.3 0 Calma 0 Calma 0 -- -- 67
2020-01-25 14:00:00 11.2 0 Calma -- -- 0 -- -- 73
2020-01-25 13:00:00 9.5 0 Calma -- -- 0 -- -- 80
2020-01-25 12:00:00 6.5 0 Calma -- -- 0 -- -- 90
2020-01-25 11:00:00 4.8 0 Calma -- -- 0 -- -- 97
2020-01-25 10:00:00 3.2 0 Calma -- -- 0 -- -- 97
2020-01-25 09:00:00 2.5 0 Calma -- -- 0 -- -- 95
2020-01-25 08:00:00 2.7 0 Calma -- -- 0 -- -- 92
2020-01-25 07:00:00 3.4 0 Calma -- -- 0 -- -- 94
2020-01-25 06:00:00 3.5 0 Calma -- -- 0 -- -- 95
2020-01-25 05:00:00 3.6 0 Calma -- -- 0 -- -- 96
2020-01-25 04:00:00 3.5 0 Calma -- -- 0 -- -- 96
2020-01-25 03:00:00 3.3 0 Calma -- -- 0 -- -- 95
2020-01-25 02:00:00 4.1 0 Calma -- -- 0 -- -- 92
2020-01-25 01:00:00 4.4 0 Calma -- -- 0 -- -- 94
2020-01-25 00:00:00 4.4 0 Calma -- -- 0 -- -- 91
2020-01-24 23:00:00 5 0 Calma -- -- 0 -- -- 89
2020-01-24 22:00:00 5.8 0 Calma -- -- 0 -- -- 88
2020-01-24 21:00:00 7.3 0 Calma -- -- 0 -- -- 86
2020-01-24 20:00:00 8.2 0 Calma -- -- 0 -- -- 85
2020-01-24 19:00:00 9.6 0 Calma -- -- 0 -- -- 82
2020-01-24 18:00:00 10.9 0 Calma -- -- 0 -- -- 78
2020-01-24 17:00:00 11.2 0 Calma -- -- 0 -- -- 75
2020-01-24 16:00:00 10.9 0 Calma -- -- 0 -- -- 75
2020-01-24 15:00:00 10.8 0 Calma -- -- 0 -- -- 71
2020-01-24 14:00:00 10.7 0 Calma -- -- 0 -- -- 69
2020-01-24 13:00:00 9.8 0 Calma -- -- 0 -- -- 75
2020-01-24 12:00:00 7.5 0 Calma 3 Sudoeste 0 -- -- 81
2020-01-24 11:00:00 2.9 0 Calma -- -- 0 -- -- 98
2020-01-24 10:00:00 -0.6 0 Calma -- -- 0 -- -- 97
2020-01-24 09:00:00 -1.4 0 Calma -- -- 0 -- -- 95
2020-01-24 08:00:00 -1.1 0 Calma -- -- 0 -- -- 95
2020-01-24 07:00:00 -0.5 0 Calma -- -- 0 -- -- 94
2020-01-24 06:00:00 -0.1 0 Calma -- -- 0 -- -- 95
2020-01-24 05:00:00 0.5 0 Calma -- -- 0 -- -- 94
2020-01-24 04:00:00 1.4 0 Calma -- -- 0 -- -- 92
2020-01-24 03:00:00 2.2 0 Calma -- -- 0 -- -- 92
2020-01-24 02:00:00 2.3 0 Calma -- -- 0 -- -- 94
2020-01-24 01:00:00 1.9 0 Calma -- -- 0 -- -- 94
2020-01-24 00:00:00 1.6 0 Calma -- -- 0 -- -- 93
2020-01-23 23:00:00 1.8 0 Calma -- -- 0 -- -- 90
2020-01-23 22:00:00 2.6 0 Calma -- -- 0 -- -- 86
2020-01-23 21:00:00 3.9 0 Calma -- -- 0 -- -- 84
2020-01-23 20:00:00 5.4 0 Calma 4 Norte 0 -- -- 83
2020-01-23 19:00:00 8 0 Calma 4 Norte 0 -- -- 75
2020-01-23 18:00:00 10.9 0 Calma 4 Sudoeste 0 -- -- 70
2020-01-23 17:00:00 13.7 0 Calma 8 Sudoeste 0 -- -- 62
2020-01-23 16:00:00 13.5 4 Oeste 12 Sudoeste 0 -- -- 57
2020-01-23 15:00:00 12.4 3 Sur 6 Sur 0 -- -- 61
2020-01-23 14:00:00 8.5 0 Calma 8 Sudoeste 0 -- -- 77
2020-01-23 13:00:00 5.4 3 Sudoeste 6 Sudoeste 0 -- -- 87
2020-01-23 12:00:00 2.2 0 Calma 5 Nordeste 0 -- -- 97
2020-01-23 11:00:00 0.7 0 Calma 6 Nordeste 0 -- -- 97
2020-01-23 10:00:00 0.1 0 Calma 4 Norte 0 -- -- 97
2020-01-23 09:00:00 -0.5 0 Calma 4 Nordeste 0 -- -- 97
2020-01-23 08:00:00 -0.8 0 Calma 3 Nordeste 0 -- -- 96
2020-01-23 07:00:00 -1.3 0 Calma 2 Nordeste 0 -- -- 92
2020-01-23 06:00:00 -0.7 0 Calma 5 Sudoeste 0 -- -- 92
2020-01-23 05:00:00 -0.3 0 Calma 5 Norte 0 -- -- 94
2020-01-23 04:00:00 0.3 0 Calma 2 Norte 0 -- -- 91
2020-01-23 03:00:00 1.2 0 Calma 3 Noroeste 0 -- -- 87
2020-01-23 02:00:00 2.5 0 Calma 4 Norte 0 -- -- 87
2020-01-23 01:00:00 3.9 0 Calma 2 Nordeste 0 -- -- 84
2020-01-23 00:00:00 5 0 Calma 4 Noroeste 0 -- -- 82
2020-01-22 23:00:00 6.6 0 Calma 4 Sudoeste 0 -- -- 80
2020-01-22 22:00:00 8.2 0 Calma 4 Noroeste 0 -- -- 76
2020-01-22 21:00:00 9.3 0 Calma 17 Norte 0 -- -- 70
2020-01-22 20:00:00 9.9 5 Norte 22 Norte 0 -- -- 69
2020-01-22 19:00:00 10.6 12 Norte 24 Norte 0 -- -- 66
2020-01-22 18:00:00 11.4 9 Norte 21 Norte 0 -- -- 66
2020-01-22 17:00:00 12.6 7 Norte 22 Norte 0 -- -- 62
2020-01-22 16:00:00 13.4 10 Norte 24 Norte 0 -- -- 60
2020-01-22 15:00:00 15.7 6 Nordeste 14 Norte 0 -- -- 54
2020-01-22 14:00:00 11.7 5 Sudoeste 12 Sudoeste 0 -- -- 66
2020-01-22 13:00:00 9.8 2 Sudoeste 6 Sur 0 -- -- 68
2020-01-22 12:00:00 6.5 0 Calma 2 Sudeste 0 -- -- 82
2020-01-22 11:00:00 2.4 0 Calma -- -- 0 -- -- 92
2020-01-22 10:00:00 1.2 0 Calma -- -- 0 -- -- 94
2020-01-22 09:00:00 0.8 0 Calma 0 Calma 0 -- -- 93
2020-01-22 08:00:00 0.5 0 Calma -- -- 0 -- -- 90
2020-01-22 07:00:00 0.9 0 Calma -- -- 0 -- -- 90
2020-01-22 06:00:00 1.5 0 Calma 6 Norte 0 -- -- 88
2020-01-22 05:00:00 2.1 0 Calma 4 Norte 0 -- -- 87
2020-01-22 04:00:00 2.8 0 Calma -- -- 0 -- -- 83
2020-01-22 03:00:00 3.4 0 Calma 6 Nordeste 0 -- -- 80
2020-01-22 02:00:00 4.9 0 Calma 18 Nordeste 0 -- -- 75
2020-01-22 01:00:00 6.9 4 Este 31 Norte 0 -- -- 67
2020-01-22 00:00:00 7.2 13 Norte 38 Norte 0 -- -- 66
2020-01-21 23:00:00 7.2 18 Norte 42 Norte 0 -- -- 66
2020-01-21 22:00:00 7.1 14 Norte 42 Norte 0 -- -- 67
2020-01-21 21:00:00 7.6 13 Norte 35 Norte 0 -- -- 67
2020-01-21 20:00:00 8.3 14 Norte 40 Norte 0 -- -- 64
2020-01-21 19:00:00 9 16 Norte 38 Norte 0 -- -- 61
2020-01-21 18:00:00 9.7 10 Nordeste 37 Norte 0 -- -- 59
2020-01-21 17:00:00 10.7 14 Norte 40 Norte 0 -- -- 55
2020-01-21 16:00:00 11.2 20 Norte 41 Nordeste 0 -- -- 53
2020-01-21 15:00:00 12.5 19 Norte 39 Nordeste 0 -- -- 50
2020-01-21 14:00:00 12.6 15 Norte 33 Norte 0 -- -- 50
2020-01-21 13:00:00 10.8 12 Norte 33 Nordeste 0 -- -- 57
2020-01-21 12:00:00 6.9 0 Calma 5 Nordeste 0 -- -- 69
2020-01-21 11:00:00 1.6 0 Calma 6 Sur 0 -- -- 82
2020-01-21 10:00:00 -2.9 0 Calma 3 Noroeste 0 -- -- 93
2020-01-21 09:00:00 -3.4 0 Calma -- -- 0 -- -- 91
2020-01-21 08:00:00 -3.1 0 Calma 3 Sudeste 0 -- -- 90
2020-01-21 07:00:00 -2.8 0 Calma 4 Norte 0 -- -- 89
2020-01-21 06:00:00 -2.3 0 Calma -- -- 0 -- -- 88
2020-01-21 05:00:00 -1.9 0 Calma 0 Calma 0 -- -- 87
2020-01-21 04:00:00 -1.4 0 Calma -- -- 0 -- -- 85
2020-01-21 03:00:00 -0.3 0 Calma 5 Sudoeste 0 -- -- 80
2020-01-21 02:00:00 1 0 Calma 6 Nordeste 0 -- -- 78
2020-01-21 01:00:00 2.3 0 Calma 14 Nordeste 0 -- -- 74
2020-01-21 00:00:00 3.7 0 Calma 17 Nordeste 0 -- -- 68
2020-01-20 23:00:00 4.3 6 Nordeste 22 Norte 0 -- -- 64
2020-01-20 22:00:00 4.7 6 Norte 31 Norte 0 -- -- 61
2020-01-20 21:00:00 5.1 15 Norte 31 Norte 0 -- -- 58
2020-01-20 20:00:00 5.6 15 Norte 29 Norte 0 -- -- 59
2020-01-20 19:00:00 6.2 12 Norte 33 Norte 0 -- -- 56
2020-01-20 18:00:00 7.6 16 Norte 40 Norte 0 -- -- 52
2020-01-20 17:00:00 9.6 22 Norte 45 Norte 0 -- -- 45
2020-01-20 16:00:00 10.9 17 Nordeste 44 Norte 0 -- -- 44
2020-01-20 15:00:00 10.9 21 Norte 47 Norte 0 -- -- 38
2020-01-20 14:00:00 11 19 Norte 40 Norte 0 -- -- 39
2020-01-20 13:00:00 10.4 19 Norte 38 Nordeste 0 -- -- 42
2020-01-20 12:00:00 9.4 14 Norte 28 Norte 0 -- -- 46
2020-01-20 11:00:00 7.5 9 Nordeste 24 Norte 0 -- -- 51
2020-01-20 10:00:00 4.4 8 Norte 24 Norte 0 -- -- 66
2020-01-20 09:00:00 3.8 12 Norte 23 Nordeste 0 -- -- 68
2020-01-20 08:00:00 4 13 Norte 26 Norte 0 -- -- 68
2020-01-20 07:00:00 3.6 6 Norte 17 Norte 0 -- -- 67
2020-01-20 06:00:00 4 0 Calma 23 Norte 0 -- -- 66
2020-01-20 05:00:00 5.2 11 Norte 26 Norte 0 -- -- 57
2020-01-20 04:00:00 5.1 11 Norte 24 Norte 0 -- -- 57
2020-01-20 03:00:00 4.5 8 Norte 19 Norte 0 -- -- 64
2020-01-20 02:00:00 4.5 5 Norte 21 Norte 0 -- -- 65
2020-01-20 01:00:00 4.3 2 Norte 16 Norte 0 -- -- 64
2020-01-20 00:00:00 5.1 7 Norte 26 Norte 0 -- -- 59
2020-01-19 23:00:00 5.2 10 Norte 32 Noroeste 0 -- -- 59
2020-01-19 22:00:00 5.5 14 Norte 28 Norte 0 -- -- 58
2020-01-19 21:00:00 6.2 14 Norte 34 Norte 0 -- -- 54
2020-01-19 20:00:00 6.7 15 Norte 34 Norte 0 -- -- 54
2020-01-19 19:00:00 7.7 14 Norte 39 Nordeste 0 -- -- 51
2020-01-19 18:00:00 9.3 20 Norte 38 Norte 0 -- -- 48
2020-01-19 17:00:00 11.5 17 Norte 40 Nordeste 0 -- -- 47
2020-01-19 16:00:00 12.5 19 Norte 44 Nordeste 0 -- -- 41
2020-01-19 15:00:00 12.3 20 Norte 42 Norte 0 -- -- 46
2020-01-19 14:00:00 12.4 17 Norte 42 Nordeste 0 -- -- 50
2020-01-19 13:00:00 11.8 19 Norte 41 Nordeste 0 -- -- 50
2020-01-19 12:00:00 10.6 18 Norte 40 Norte 0 -- -- 57
2020-01-19 11:00:00 9 17 Norte 36 Norte 0 -- -- 61
2020-01-19 10:00:00 7.1 14 Norte 31 Norte 0 -- -- 71
2020-01-19 09:00:00 6.9 12 Norte 25 Nordeste 0 -- -- 77
2020-01-19 08:00:00 7.1 3 Nordeste 18 Norte 0 -- -- 86
2020-01-19 07:00:00 7.5 0 Calma 24 Nordeste 0 -- -- 88
2020-01-19 06:00:00 7.7 6 Norte 19 Norte 0 -- -- 93
2020-01-19 05:00:00 7.4 2 Sudoeste 5 Sudoeste 0.2 -- -- 97
2020-01-19 04:00:00 7.6 0 Calma 5 Nordeste 0 -- -- 97
2020-01-19 03:00:00 7.6 0 Calma 5 Sudoeste 0 -- -- 97
2020-01-19 02:00:00 7.5 0 Calma 8 Sudoeste 0 -- -- 97
2020-01-19 01:00:00 7.5 0 Calma 3 Nordeste 0 -- -- 96
2020-01-19 00:00:00 7.7 0 Calma 4 Norte 0.2 -- -- 95
2020-01-18 23:00:00 7.9 0 Calma 4 Nordeste 0 -- -- 94
2020-01-18 22:00:00 8.2 0 Calma 3 Norte 0.2 -- -- 93
2020-01-18 21:00:00 8.3 0 Calma 5 Sudoeste 2 -- -- 93
2020-01-18 20:00:00 8.8 0 Calma 10 Sudoeste 1.2 -- -- 90
2020-01-18 19:00:00 9.3 7 Sudoeste 15 Sudoeste 0 -- -- 83
2020-01-18 18:00:00 10.9 4 Oeste 18 Noroeste 0 -- -- 75
2020-01-18 17:00:00 13 3 Oeste 26 Noroeste 0 -- -- 66
2020-01-18 16:00:00 11.4 11 Noroeste 38 Oeste 0.4 -- -- 82
2020-01-18 15:00:00 14.1 6 Oeste 36 Sudoeste 0.2 -- -- 73
2020-01-18 14:00:00 15.2 14 Sudoeste 37 Sudoeste 0 -- -- 78
2020-01-18 13:00:00 14.5 17 Sudoeste 35 Oeste 0 -- -- 79
2020-01-18 12:00:00 10.6 0 Calma 6 Norte 0 -- -- 94
2020-01-18 11:00:00 8.5 2 Norte 8 Nordeste 0 -- -- 99
2020-01-18 10:00:00 7.3 0 Calma 5 Sudoeste 0 -- -- 97
2020-01-18 09:00:00 6.9 0 Calma 5 Sudoeste 0 -- -- 97
2020-01-18 08:00:00 6.6 0 Calma 5 Sudoeste 0 -- -- 97
2020-01-18 07:00:00 6.1 0 Calma 5 Sudoeste 0 -- -- 97
2020-01-18 06:00:00 5.7 0 Calma 4 Noroeste 0.2 -- -- 97
2020-01-18 05:00:00 5.4 0 Calma 6 Norte 0 -- -- 95
2020-01-18 04:00:00 5.7 0 Calma 3 Oeste 0 -- -- 95
2020-01-18 03:00:00 5.6 0 Calma 4 Norte 0 -- -- 95
2020-01-18 02:00:00 5.5 3 Noroeste 6 Norte 0 -- -- 95
2020-01-18 01:00:00 5.8 2 Norte 4 Nordeste 0 -- -- 94
2020-01-18 00:00:00 6 0 Calma 6 Sudoeste 0 -- -- 93
2020-01-17 23:00:00 6.2 0 Calma 4 Nordeste 0 -- -- 92
2020-01-17 22:00:00 6.5 0 Calma 3 Norte 0 -- -- 92
2020-01-17 21:00:00 6.9 0 Calma 5 Nordeste 0 -- -- 90
2020-01-17 20:00:00 7.6 0 Calma 2 Este 0 -- -- 88
2020-01-17 19:00:00 8.5 0 Calma 3 Este 0 -- -- 86
2020-01-17 18:00:00 9.7 0 Calma 2 Este 0 -- -- 83
2020-01-17 17:00:00 10.2 0 Calma 7 Sudoeste 0 -- -- 72
2020-01-17 16:00:00 10.6 4 Sudoeste 14 Sudoeste 0 -- -- 68
2020-01-17 15:00:00 10.7 5 Sudoeste 17 Sudoeste 0 -- -- 69
2020-01-17 14:00:00 10.5 7 Sudoeste 19 Sudoeste 0 -- -- 70
2020-01-17 13:00:00 11.7 7 Sudoeste 15 Sudoeste 0 -- -- 72
2020-01-17 12:00:00 9.8 0 Calma 4 Sudoeste 0 -- -- 84
2020-01-17 11:00:00 6.2 0 Calma 4 Oeste 0 -- -- 97
2020-01-17 10:00:00 4.8 2 Norte 7 Sudoeste 0 -- -- 97
2020-01-17 09:00:00 4.8 0 Calma 2 Sur 0 -- -- 94
2020-01-17 08:00:00 5.8 0 Calma 14 Sudoeste 0.6 -- -- 97
2020-01-17 07:00:00 5 4 Norte 8 Noroeste 0.4 -- -- 96
2020-01-17 06:00:00 5.8 0 Calma 5 Este 0 -- -- 96
2020-01-17 05:00:00 5.9 0 Calma 5 Noroeste 0.2 -- -- 97
2020-01-17 04:00:00 6.4 0 Calma 9 Sur 0 -- -- 92
2020-01-17 03:00:00 7.5 2 Noroeste 8 Sudoeste 0 -- -- 95
2020-01-17 02:00:00 8 4 Sur 9 Oeste 0.6 -- -- 95
2020-01-17 01:00:00 7.7 0 Calma 5 Nordeste 0 -- -- 95
2020-01-17 00:00:00 8.5 0 Calma 14 Sudoeste 0 -- -- 91
2020-01-16 23:00:00 8.7 0 Calma 13 Sudoeste 0 -- -- 93
2020-01-16 22:00:00 8.9 3 Sur 21 Sudoeste 4 -- -- 94
2020-01-16 21:00:00 8.9 2 Noroeste 8 Sudoeste 0.2 -- -- 93
2020-01-16 20:00:00 9.9 4 Sudoeste 9 Sudoeste 2.8 -- -- 92
2020-01-16 19:00:00 10.9 0 Calma 29 Noroeste 3.2 -- -- 87
2020-01-16 18:00:00 12 4 Sur 30 Sur 0 -- -- 75
2020-01-16 17:00:00 13 9 Sur 35 Sudeste 0 -- -- 71
2020-01-16 16:00:00 13.7 13 Sur 52 Sur 0 -- -- 66
2020-01-16 15:00:00 14.7 19 Sur 45 Sur 0 -- -- 54
2020-01-16 14:00:00 14.9 14 Sur 44 Sudoeste 0 -- -- 63
2020-01-16 13:00:00 15 20 Sur 61 Oeste 0 -- -- 64
2020-01-16 12:00:00 15.6 16 Sur 44 Sur 0 -- -- 63
2020-01-16 11:00:00 15.5 16 Sur 44 Sudoeste 0 -- -- 68
2020-01-16 10:00:00 15.1 21 Sur 51 Sur 0 -- -- 66
2020-01-16 09:00:00 14.8 18 Sur 43 Sur 0 -- -- 66
2020-01-16 08:00:00 14.8 18 Sur 53 Sur 0 -- -- 67
2020-01-16 07:00:00 14.5 18 Sur 46 Sudoeste 0 -- -- 72
2020-01-16 06:00:00 14.5 15 Sur 39 Sur 0 -- -- 73
2020-01-16 05:00:00 15.1 10 Sur 36 Sur 0 -- -- 71
2020-01-16 04:00:00 15.3 10 Sur 42 Sur 0 -- -- 67
2020-01-16 03:00:00 14.9 6 Sur 23 Sur 0 -- -- 66
2020-01-16 02:00:00 14.2 5 Sur 27 Sur 0 -- -- 69
2020-01-16 01:00:00 14.7 13 Sur 34 Sur 0 -- -- 69
2020-01-16 00:00:00 14.7 12 Sur 37 Sudoeste 0 -- -- 69
2020-01-15 23:00:00 8.5 3 Sur 8 Sudeste 0 -- -- 93
2020-01-15 22:00:00 8.7 0 Calma 5 Oeste 0 -- -- 90
2020-01-15 21:00:00 8.2 0 Calma 5 Sudeste 0 -- -- 88
2020-01-15 20:00:00 8.9 3 Sudeste 6 Sudeste 0 -- -- 84
2020-01-15 19:00:00 11.3 0 Calma 12 Sudeste 0 -- -- 76
2020-01-15 18:00:00 14.1 4 Sur 22 Sur 0 -- -- 67
2020-01-15 17:00:00 15.2 8 Sur 25 Sudoeste 0 -- -- 63
2020-01-15 16:00:00 16.5 15 Sudoeste 30 Sudoeste 0 -- -- 58
2020-01-15 15:00:00 15.9 0 Calma 8 Nordeste 0 -- -- 75
2020-01-15 14:00:00 15.3 3 Nordeste 7 Noroeste 0 -- -- 75
2020-01-15 13:00:00 12.5 3 Oeste 11 Sudoeste 0 -- -- 83
2020-01-15 12:00:00 10.9 6 Sudoeste 11 Sudoeste 0 -- -- 94
2020-01-15 11:00:00 9.6 2 Sur 8 Sur 0.8 -- -- 96
2020-01-15 10:00:00 9.4 0 Calma 4 Sudeste 0.2 -- -- 95
2020-01-15 09:00:00 9.6 2 Oeste 13 Sur 0.4 -- -- 92
2020-01-15 08:00:00 10.2 7 Sur 32 Sudoeste 5.8 -- -- 90
2020-01-15 07:00:00 10.9 16 Sudoeste 33 Sudoeste 2.6 -- -- 87
2020-01-15 06:00:00 11.2 5 Sudeste 25 Sur 5.8 -- -- 92
2020-01-15 05:00:00 12.7 13 Sur 30 Sur 0 -- -- 78
2020-01-15 04:00:00 13.2 12 Sur 30 Sudeste 0 -- -- 70
2020-01-15 03:00:00 11.7 11 Sur 27 Sur 0.4 -- -- 81
2020-01-15 02:00:00 12.3 13 Sur 33 Sur 0 -- -- 78
2020-01-15 01:00:00 12.1 14 Sur 38 Sur 0 -- -- 78
2020-01-15 00:00:00 13.4 18 Sur 44 Sur 0 -- -- 69
2020-01-14 23:00:00 13 13 Sur 37 Sudoeste 0 -- -- 68
2020-01-14 22:00:00 13 16 Sur 35 Sur 0 -- -- 66
2020-01-14 21:00:00 12.4 15 Sur 39 Sur 0 -- -- 68
2020-01-14 20:00:00 12.9 19 Sur 42 Sur 0 -- -- 64
2020-01-14 19:00:00 12.8 15 Sudoeste 39 Sudoeste 0 -- -- 64
2020-01-14 18:00:00 12.8 10 Sur 36 Sur 0 -- -- 64
2020-01-14 17:00:00 13 14 Sur 40 Sudoeste 0 -- -- 66
2020-01-14 16:00:00 13 14 Sur 36 Sur 0 -- -- 67
2020-01-14 15:00:00 13.7 17 Sur 35 Sur 0 -- -- 62
2020-01-14 14:00:00 13.4 13 Sur 34 Sur 0 -- -- 62
2020-01-14 13:00:00 13.3 12 Sur 38 Sur 0 -- -- 60
2020-01-14 12:00:00 12.9 12 Sur 32 Sur 0 -- -- 60
2020-01-14 11:00:00 12.7 15 Sur 35 Sur 0 -- -- 63
2020-01-14 10:00:00 12.2 9 Sur 26 Sudoeste 0 -- -- 65
2020-01-14 09:00:00 11.9 12 Sur 31 Sur 0 -- -- 65
2020-01-14 08:00:00 11.7 13 Sur 32 Sur 0 -- -- 69
2020-01-14 07:00:00 11.5 9 Sur 37 Sur 0 -- -- 69
2020-01-14 06:00:00 11.3 13 Sur 33 Sudoeste 0 -- -- 70
2020-01-14 05:00:00 11.4 13 Sur 31 Sudoeste 0 -- -- 71
2020-01-14 04:00:00 11.4 7 Sur 31 Sudoeste 0 -- -- 71
2020-01-14 03:00:00 11.1 10 Sur 26 Sur 0 -- -- 71
2020-01-14 02:00:00 11.2 9 Sur 29 Sur 0 -- -- 70
2020-01-14 01:00:00 11.3 10 Sur 26 Sur 0 -- -- 69
2020-01-14 00:00:00 11 8 Sur 25 Sur 0 -- -- 71
2020-01-13 23:00:00 10.9 8 Sur 26 Sur 0 -- -- 70
2020-01-13 22:00:00 10.7 9 Sur 28 Sur 0 -- -- 70
2020-01-13 21:00:00 10.2 8 Sudoeste 27 Sur 0 -- -- 71
2020-01-13 20:00:00 10.1 10 Sur 31 Sur 0 -- -- 69
2020-01-13 19:00:00 9.8 3 Sur 15 Sudoeste 0 -- -- 67
2020-01-13 18:00:00 10.5 8 Sudoeste 22 Sudoeste 0 -- -- 61
2020-01-13 17:00:00 12.8 10 Sudoeste 32 Sudoeste 0 -- -- 54
2020-01-13 16:00:00 13 14 Sudoeste 32 Oeste 0 -- -- 50
2020-01-13 15:00:00 13.2 0 Calma 6 Sur 0 -- -- 52
2020-01-13 14:00:00 10.8 3 Sur 7 Sur 0 -- -- 67
2020-01-13 13:00:00 7.6 2 Sudeste 6 Este 0 -- -- 78
2020-01-13 12:00:00 2.8 2 Sudeste 7 Sudeste 0 -- -- 100
2020-01-13 11:00:00 -0.3 0 Calma 3 Este 0 -- -- 99
2020-01-13 10:00:00 -0.7 0 Calma 5 Nordeste 0 -- -- 99
2020-01-13 09:00:00 -0.9 0 Calma 4 Nordeste 0 -- -- 98
2020-01-13 08:00:00 -0.9 0 Calma 5 Nordeste 0 -- -- 98
2020-01-13 07:00:00 -0.9 0 Calma 4 Este 0 -- -- 98
2020-01-13 06:00:00 -0.8 0 Calma 3 Este 0 -- -- 98
2020-01-13 05:00:00 -1 0 Calma 2 Este 0 -- -- 98
2020-01-13 04:00:00 -1 0 Calma 0 Calma 0 -- -- 97
2020-01-13 03:00:00 -1.1 0 Calma 3 Este 0 -- -- 96
2020-01-13 02:00:00 -1 0 Calma 2 Nordeste 0 -- -- 96
2020-01-13 01:00:00 -1 0 Calma 2 Nordeste 0 -- -- 97
2020-01-13 00:00:00 -1.2 0 Calma 0 Calma 0 -- -- 94
2020-01-12 23:00:00 -0.7 0 Calma 3 Nordeste 0 -- -- 93
2020-01-12 22:00:00 0 0 Calma 2 Nordeste 0 -- -- 93
2020-01-12 21:00:00 0.8 0 Calma 2 Nordeste 0 -- -- 91
2020-01-12 20:00:00 1.9 0 Calma 3 Nordeste 0 -- -- 88
2020-01-12 19:00:00 3.7 0 Calma 2 Nordeste 0 -- -- 85
2020-01-12 18:00:00 5.9 0 Calma 3 Nordeste 0 -- -- 83
2020-01-12 17:00:00 7.6 0 Calma 4 Nordeste 0 -- -- 77
2020-01-12 16:00:00 6 2 Nordeste 6 Nordeste 0 -- -- 83
2020-01-12 15:00:00 2.1 0 Calma 3 Nordeste 0 -- -- 97
2020-01-12 14:00:00 0.9 0 Calma 3 Nordeste 0 -- -- 98
2020-01-12 13:00:00 0.3 0 Calma 3 Nordeste 0 -- -- 99
2020-01-12 12:00:00 -0.5 0 Calma 4 Nordeste 0 -- -- 98
2020-01-12 11:00:00 -1.1 0 Calma 4 Nordeste 0 -- -- 98
2020-01-12 10:00:00 -1.3 0 Calma 3 Nordeste 0 -- -- 98
2020-01-12 09:00:00 -1.3 0 Calma 2 Nordeste 0 -- -- 98
2020-01-12 08:00:00 -1.4 0 Calma 2 Nordeste 0 -- -- 98
2020-01-12 07:00:00 -1.3 0 Calma 3 Nordeste 0 -- -- 98
2020-01-12 06:00:00 -1.3 0 Calma 3 Este 0 -- -- 98
2020-01-12 05:00:00 -1.1 0 Calma 3 Este 0 -- -- 98
2020-01-12 04:00:00 -1.2 0 Calma 3 Este 0 -- -- 98
2020-01-12 03:00:00 -1.3 0 Calma 2 Este 0 -- -- 97
2020-01-12 02:00:00 -1.7 0 Calma 3 Este 0 -- -- 96
2020-01-12 01:00:00 -1.5 0 Calma 2 Este 0 -- -- 94
2020-01-12 00:00:00 -1.4 0 Calma 2 Este 0 -- -- 92
2020-01-11 23:00:00 -0.7 0 Calma 2 Este 0 -- -- 92
2020-01-11 22:00:00 0.1 0 Calma 3 Este 0 -- -- 90
2020-01-11 21:00:00 1.5 0 Calma 2 Este 0 -- -- 88
2020-01-11 20:00:00 2.7 0 Calma 3 Este 0 -- -- 87
2020-01-11 19:00:00 4.5 0 Calma 3 Este 0 -- -- 82
2020-01-11 18:00:00 7.3 0 Calma 4 Este 0 -- -- 78
2020-01-11 17:00:00 9.5 0 Calma 5 Este 0 -- -- 71
2020-01-11 16:00:00 8.6 3 Norte 5 Nordeste 0 -- -- 71
2020-01-11 15:00:00 6 0 Calma 4 Norte 0 -- -- 85
2020-01-11 14:00:00 1.8 0 Calma 4 Norte 0 -- -- 97
2020-01-11 13:00:00 0.5 0 Calma 3 Norte 0 -- -- 98
2020-01-11 12:00:00 0 0 Calma 3 Nordeste 0 -- -- 98
2020-01-11 11:00:00 -0.8 0 Calma 2 Norte 0 -- -- 98
2020-01-11 10:00:00 -1.1 0 Calma 2 Norte 0 -- -- 97
2020-01-11 09:00:00 -1.1 0 Calma 3 Norte 0 -- -- 97
2020-01-11 08:00:00 -0.7 0 Calma 2 Norte 0 -- -- 97
2020-01-11 07:00:00 -0.7 0 Calma 2 Norte 0 -- -- 97
2020-01-11 06:00:00 -0.6 0 Calma 2 Norte 0 -- -- 97
2020-01-11 05:00:00 -0.7 0 Calma 2 Norte 0 -- -- 97
2020-01-11 04:00:00 -0.8 0 Calma 2 Norte 0 -- -- 96
2020-01-11 03:00:00 -1.3 0 Calma 2 Norte 0 -- -- 94
2020-01-11 02:00:00 -1.1 0 Calma 2 Norte 0 -- -- 93
2020-01-11 01:00:00 -0.5 0 Calma 0 Calma 0 -- -- 92
2020-01-11 00:00:00 0.1 0 Calma 2 Norte 0 -- -- 91
2020-01-10 23:00:00 1 0 Calma 3 Norte 0 -- -- 89
2020-01-10 22:00:00 2 0 Calma 2 Norte 0 -- -- 88
2020-01-10 21:00:00 3.2 0 Calma 3 Norte 0 -- -- 86
2020-01-10 20:00:00 4.6 0 Calma 4 Norte 0 -- -- 83
2020-01-10 19:00:00 7 0 Calma 3 Norte 0 -- -- 77
2020-01-10 18:00:00 10.1 2 Norte 19 Norte 0 -- -- 70
2020-01-10 17:00:00 12.4 6 Norte 16 Norte 0 -- -- 60
2020-01-10 16:00:00 13.1 7 Norte 18 Norte 0 -- -- 59
2020-01-10 15:00:00 12.2 8 Norte 18 Norte 0 -- -- 64
2020-01-10 14:00:00 11.4 5 Norte 13 Nordeste 0 -- -- 72
2020-01-10 13:00:00 7.7 3 Sur 8 Sur 0 -- -- 85
2020-01-10 12:00:00 5.5 5 Noroeste 8 Noroeste 0 -- -- 95
2020-01-10 11:00:00 2.7 0 Calma 3 Sur 0 -- -- 99
2020-01-10 10:00:00 1.5 0 Calma 4 Sur 0 -- -- 99
2020-01-10 09:00:00 0.8 0 Calma 3 Noroeste 0 -- -- 96
2020-01-10 08:00:00 1.3 0 Calma 2 Oeste 0 -- -- 98
2020-01-10 07:00:00 1.3 0 Calma 4 Sudoeste 0 -- -- 98
2020-01-10 06:00:00 0.9 0 Calma 3 Sudoeste 0 -- -- 97
2020-01-10 05:00:00 0.8 0 Calma 6 Oeste 0 -- -- 97
2020-01-10 04:00:00 0.5 0 Calma 4 Noroeste 0 -- -- 97
2020-01-10 03:00:00 0.5 0 Calma 3 Noroeste 0 -- -- 94
2020-01-10 02:00:00 0.8 2 Noroeste 5 Noroeste 0 -- -- 96
2020-01-10 01:00:00 1.2 0 Calma 3 Noroeste 0 -- -- 93
2020-01-10 00:00:00 2.1 0 Calma 8 Noroeste 0 -- -- 92
2020-01-09 23:00:00 2.6 0 Calma 6 Noroeste 0 -- -- 94
2020-01-09 22:00:00 3.7 2 Noroeste 5 Noroeste 0 -- -- 86
2020-01-09 21:00:00 5.7 0 Calma 4 Noroeste 0 -- -- 83
2020-01-09 20:00:00 7.6 2 Noroeste 19 Noroeste 0 -- -- 77
2020-01-09 19:00:00 9.3 3 Noroeste 13 Noroeste 0 -- -- 76
2020-01-09 18:00:00 10.4 9 Noroeste 19 Noroeste 0 -- -- 73
2020-01-09 17:00:00 12 6 Noroeste 23 Oeste 0 -- -- 75
2020-01-09 16:00:00 12.7 13 Noroeste 31 Oeste 0 -- -- 72
2020-01-09 15:00:00 13.3 4 Oeste 33 Sudoeste 0.2 -- -- 79
2020-01-09 14:00:00 14.9 9 Sudoeste 31 Sudoeste 0 -- -- 78
2020-01-09 13:00:00 11.3 2 Oeste 6 Oeste 0 -- -- 97
2020-01-09 12:00:00 9.7 0 Calma 4 Oeste 0 -- -- 96
2020-01-09 11:00:00 8.4 0 Calma 7 Oeste 0 -- -- 97
2020-01-09 10:00:00 7.7 0 Calma 3 Oeste 0 -- -- 96
2020-01-09 09:00:00 7.5 0 Calma 5 Oeste 0 -- -- 97
2020-01-09 08:00:00 7.4 0 Calma 5 Sur 0 -- -- 95
2020-01-09 07:00:00 7.4 0 Calma 3 Oeste 0 -- -- 96
2020-01-09 06:00:00 7.4 0 Calma -- -- 0 -- -- 95
2020-01-09 05:00:00 7.3 0 Calma 7 Oeste 0 -- -- 95
2020-01-09 04:00:00 7.3 0 Calma 4 Oeste 0 -- -- 95
2020-01-09 03:00:00 7.5 0 Calma 2 Oeste 0 -- -- 94
2020-01-09 02:00:00 7.8 0 Calma 6 Oeste 0 -- -- 93
2020-01-09 01:00:00 7.9 2 Sudoeste 5 Sur 0 -- -- 93
2020-01-09 00:00:00 7.9 0 Calma 4 Oeste 0 -- -- 92
2020-01-08 23:00:00 8.1 0 Calma 2 Oeste 0 -- -- 93
2020-01-08 22:00:00 8.2 0 Calma 2 Oeste 0 -- -- 91
2020-01-08 21:00:00 8.4 0 Calma 2 Sudoeste 0 -- -- 90
2020-01-08 20:00:00 8.8 0 Calma 2 Sudoeste 0 -- -- 88
2020-01-08 19:00:00 9.2 0 Calma 0 Calma 0 -- -- 87
2020-01-08 18:00:00 10 0 Calma 3 Sudoeste 0 -- -- 84
2020-01-08 17:00:00 10.4 0 Calma 4 Sudoeste 0 -- -- 70
2020-01-08 16:00:00 10.5 0 Calma 4 Sudoeste 0 -- -- 68
2020-01-08 15:00:00 10.6 0 Calma 4 Sudoeste 0 -- -- 64
2020-01-08 14:00:00 9 0 Calma 5 Sudoeste 0 -- -- 75
2020-01-08 13:00:00 5.7 3 Sudoeste 7 Sudoeste 0 -- -- 85
2020-01-08 12:00:00 1.2 0 Calma 4 Sur 0 -- -- 99
2020-01-08 11:00:00 0.3 0 Calma 2 Oeste 0 -- -- 99
2020-01-08 10:00:00 -0.5 0 Calma 2 Oeste 0 -- -- 99
2020-01-08 09:00:00 -0.6 0 Calma 2 Oeste 0 -- -- 99
2020-01-08 08:00:00 -0.6 0 Calma 2 Oeste 0 -- -- 98
2020-01-08 07:00:00 -0.5 0 Calma 3 Oeste 0 -- -- 98
2020-01-08 06:00:00 -0.3 0 Calma 4 Oeste 0 -- -- 98
2020-01-08 05:00:00 -0.3 0 Calma 0 Calma 0 -- -- 98
2020-01-08 04:00:00 -0.3 0 Calma 2 Oeste 0 -- -- 98
2020-01-08 03:00:00 -0.4 0 Calma 4 Oeste 0 -- -- 98
2020-01-08 02:00:00 -0.5 0 Calma 2 Oeste 0 -- -- 97
2020-01-08 01:00:00 -0.4 0 Calma 0 Calma 0 -- -- 98
2020-01-08 00:00:00 -0.7 0 Calma 2 Oeste 0 -- -- 95
2020-01-07 23:00:00 -0.4 0 Calma 2 Oeste 0 -- -- 94
2020-01-07 22:00:00 0.2 0 Calma 2 Oeste 0 -- -- 93
2020-01-07 21:00:00 1.1 0 Calma 2 Oeste 0 -- -- 91
2020-01-07 20:00:00 2.3 0 Calma 2 Oeste 0 -- -- 89
2020-01-07 19:00:00 4.1 0 Calma 2 Oeste 0 -- -- 86
2020-01-07 18:00:00 6.1 0 Calma 4 Sudoeste 0 -- -- 85
2020-01-07 17:00:00 7.1 0 Calma 5 Sudoeste 0 -- -- 75
2020-01-07 16:00:00 6.6 3 Sudoeste 8 Sudoeste 0 -- -- 78
2020-01-07 15:00:00 5.2 0 Calma 5 Nordeste 0 -- -- 87
2020-01-07 14:00:00 1.7 2 Nordeste 4 Nordeste 0 -- -- 98
2020-01-07 13:00:00 0.5 0 Calma 3 Sudeste 0 -- -- 98
2020-01-07 12:00:00 -0.1 0 Calma 3 Sudeste 0 -- -- 99
2020-01-07 11:00:00 -0.5 0 Calma 5 Nordeste 0 -- -- 99
2020-01-07 10:00:00 -0.6 0 Calma 4 Este 0 -- -- 99
2020-01-07 09:00:00 -0.5 0 Calma 3 Este 0 -- -- 99
2020-01-07 08:00:00 -0.4 0 Calma 3 Este 0 -- -- 99
2020-01-07 07:00:00 -0.4 0 Calma 4 Nordeste 0 -- -- 99
2020-01-07 06:00:00 -0.3 0 Calma 4 Este 0 -- -- 99
2020-01-07 05:00:00 -0.1 0 Calma 5 Este 0 -- -- 99
2020-01-07 04:00:00 0.1 2 Este 4 Este 0 -- -- 99
2020-01-07 03:00:00 0.3 2 Este 4 Este 0 -- -- 99
2020-01-07 02:00:00 0.5 0 Calma 4 Este 0 -- -- 99
2020-01-07 01:00:00 0.6 0 Calma 4 Sudeste 0 -- -- 98
2020-01-07 00:00:00 0.7 0 Calma 4 Este 0 -- -- 98
2020-01-06 23:00:00 0.8 0 Calma 5 Este 0 -- -- 98
2020-01-06 22:00:00 1.2 0 Calma 5 Nordeste 0 -- -- 98
2020-01-06 21:00:00 1.5 2 Sur 4 Sur 0 -- -- 98
2020-01-06 20:00:00 1.8 0 Calma 5 Sur 0 -- -- 99
2020-01-06 19:00:00 1.7 0 Calma 5 Sur 0 -- -- 98
2020-01-06 18:00:00 2 0 Calma 5 Este 0 -- -- 97
2020-01-06 17:00:00 2.2 0 Calma 5 Noroeste 0 -- -- 96
2020-01-06 16:00:00 2.5 0 Calma 6 Norte 0 -- -- 96
2020-01-06 15:00:00 2 0 Calma 5 Noroeste 0 -- -- 96
2020-01-06 14:00:00 1.6 0 Calma 4 Nordeste 0 -- -- 97
2020-01-06 13:00:00 1.1 0 Calma 5 Nordeste 0 -- -- 98
2020-01-06 12:00:00 0.7 0 Calma 5 Noroeste 0 -- -- 98
2020-01-06 11:00:00 0.3 0 Calma 5 Noroeste 0 -- -- 98
2020-01-06 10:00:00 -0.1 0 Calma -- -- 0 -- -- 98